createdAt,value
2023-04-15T00:00:55.627Z,10.51
2023-04-15T00:02:27.942Z,10.53
2023-04-15T00:04:02.818Z,10.52
2023-04-15T00:05:34.596Z,10.51
2023-04-15T00:07:06.238Z,10.53
2023-04-15T00:08:38.686Z,10.59
2023-04-15T00:10:10.365Z,10.61
2023-04-15T00:11:42.313Z,10.68
2023-04-15T00:13:16.646Z,10.73
2023-04-15T00:14:48.661Z,10.71
2023-04-15T00:16:23.076Z,10.69
2023-04-15T00:17:58.039Z,10.65
2023-04-15T00:19:37.701Z,10.56
2023-04-15T00:21:09.908Z,10.49
2023-04-15T00:22:41.920Z,10.44
2023-04-15T00:24:14.705Z,10.40
2023-04-15T00:25:47.143Z,10.30
2023-04-15T00:27:18.886Z,10.17
2023-04-15T00:28:50.819Z,10.07
2023-04-15T00:32:28.056Z,9.91
2023-04-15T00:34:04.318Z,9.84
2023-04-15T00:35:40.016Z,9.80
2023-04-15T00:37:12.270Z,9.74
2023-04-15T00:38:47.052Z,9.73
2023-04-15T00:40:19.003Z,9.73
2023-04-15T00:41:54.308Z,9.73
2023-04-15T00:43:30.482Z,9.74
2023-04-15T00:45:09.015Z,9.69
2023-04-15T00:46:42.665Z,9.69
2023-04-15T00:48:16.251Z,9.65
2023-04-15T00:49:48.241Z,9.62
2023-04-15T00:51:20.322Z,9.58
2023-04-15T00:52:52.056Z,9.52
2023-04-15T00:54:23.758Z,9.47
2023-04-15T00:55:55.467Z,9.39
2023-04-15T00:57:27.582Z,9.29
2023-04-15T00:59:01.568Z,9.20
2023-04-15T01:00:33.445Z,9.12
2023-04-15T01:02:05.577Z,9.08
2023-04-15T01:03:41.702Z,9.06
2023-04-15T01:05:14.097Z,9.06
2023-04-15T01:06:46.063Z,9.06
2023-04-15T01:08:20.044Z,9.07
2023-04-15T01:09:52.130Z,9.09
2023-04-15T01:11:24.332Z,9.12
2023-04-15T01:12:57.140Z,9.12
2023-04-15T01:14:29.273Z,9.13
2023-04-15T01:16:02.549Z,9.15
2023-04-15T01:17:38.454Z,9.18
2023-04-15T01:19:10.949Z,9.21
2023-04-15T01:20:47.357Z,9.22
2023-04-15T01:22:29.996Z,9.23
2023-04-15T01:24:12.201Z,9.25
2023-04-15T01:25:46.821Z,9.27
2023-04-15T01:27:22.169Z,9.28
2023-04-15T01:28:54.124Z,9.32
2023-04-15T01:30:35.023Z,9.33
2023-04-15T01:32:07.113Z,9.35
2023-04-15T01:33:39.088Z,9.35
2023-04-15T01:35:11.053Z,9.36
2023-04-15T01:36:46.254Z,9.35
2023-04-15T01:38:20.892Z,9.37
2023-04-15T01:39:54.768Z,9.37
2023-04-15T01:41:27.258Z,9.37
2023-04-15T01:42:59.254Z,9.37
2023-04-15T01:44:31.555Z,9.38
2023-04-15T01:46:06.519Z,9.37
2023-04-15T01:47:39.442Z,9.35
2023-04-15T01:49:11.308Z,9.32
2023-04-15T01:50:45.662Z,9.31
2023-04-15T01:52:17.368Z,9.29
2023-04-15T01:53:49.182Z,9.28
2023-04-15T01:55:21.405Z,9.28
2023-04-15T01:56:53.279Z,9.29
2023-04-15T01:58:25.232Z,9.31
2023-04-15T01:59:57.449Z,9.35
2023-04-15T02:01:29.173Z,9.36
2023-04-15T02:03:01.262Z,9.37
2023-04-15T02:04:33.309Z,9.38
2023-04-15T02:06:06.357Z,9.40
2023-04-15T02:07:38.292Z,9.40
2023-04-15T02:09:14.256Z,9.39
2023-04-15T02:10:48.198Z,9.37
2023-04-15T02:12:22.312Z,9.37
2023-04-15T02:13:54.204Z,9.36
2023-04-15T02:15:26.813Z,9.35
2023-04-15T02:16:58.783Z,9.35
2023-04-15T02:18:32.202Z,9.35
2023-04-15T02:20:07.597Z,9.37
2023-04-15T02:21:40.221Z,9.38
2023-04-15T02:23:13.557Z,9.37
2023-04-15T02:24:49.646Z,9.33
2023-04-15T02:26:23.695Z,9.33
2023-04-15T02:28:09.519Z,9.30
2023-04-15T02:29:41.597Z,9.26
2023-04-15T02:31:13.566Z,9.20
2023-04-15T02:32:46.085Z,9.20
2023-04-15T02:34:18.344Z,9.15
2023-04-15T02:35:51.493Z,9.09
2023-04-15T02:37:23.856Z,9.06
2023-04-15T02:38:55.675Z,9.03
2023-04-15T02:40:27.801Z,9.04
2023-04-15T02:42:02.278Z,9.04
2023-04-15T02:43:36.279Z,8.95
2023-04-15T02:45:10.663Z,8.86
2023-04-15T02:46:45.184Z,8.83
2023-04-15T02:48:21.864Z,8.82
2023-04-15T02:49:56.300Z,8.82
2023-04-15T02:51:36.234Z,8.84
2023-04-15T02:53:07.925Z,8.82
2023-04-15T02:54:40.778Z,8.78
2023-04-15T02:56:12.824Z,8.77
2023-04-15T02:57:44.637Z,8.80
2023-04-15T02:59:19.158Z,8.83
2023-04-15T03:00:53.434Z,8.85
2023-04-15T03:02:26.026Z,8.89
2023-04-15T03:03:58.383Z,8.89
2023-04-15T03:05:30.142Z,8.88
2023-04-15T03:07:01.994Z,8.92
2023-04-15T03:08:34.739Z,8.96
2023-04-15T03:10:07.090Z,8.96
2023-04-15T03:11:40.843Z,8.99
2023-04-15T03:13:12.471Z,9.04
2023-04-15T03:14:44.083Z,9.10
2023-04-15T03:16:16.427Z,9.20
2023-04-15T03:17:49.769Z,9.25
2023-04-15T03:19:21.743Z,9.29
2023-04-15T03:20:53.574Z,9.26
2023-04-15T03:22:31.112Z,9.22
2023-04-15T03:24:05.507Z,9.19
2023-04-15T03:25:38.310Z,9.19
2023-04-15T03:27:09.946Z,9.12
2023-04-15T03:28:41.616Z,9.08
2023-04-15T03:30:13.407Z,9.10
2023-04-15T03:31:47.124Z,9.13
2023-04-15T03:33:19.330Z,9.10
2023-04-15T03:34:51.698Z,9.05
2023-04-15T03:36:23.553Z,9.03
2023-04-15T03:37:57.129Z,9.01
2023-04-15T03:39:28.919Z,8.97
2023-04-15T03:41:00.499Z,8.93
2023-04-15T03:42:32.210Z,8.84
2023-04-15T03:44:03.868Z,8.75
2023-04-15T03:45:35.823Z,8.62
2023-04-15T03:47:07.833Z,8.53
2023-04-15T03:48:42.604Z,8.49
2023-04-15T03:50:14.164Z,8.44
2023-04-15T03:51:45.923Z,8.40
2023-04-15T03:53:17.664Z,8.31
2023-04-15T03:54:49.825Z,8.23
2023-04-15T03:56:21.700Z,8.14
2023-04-15T03:57:53.635Z,8.03
2023-04-15T03:59:25.514Z,7.96
2023-04-15T04:00:57.269Z,7.89
2023-04-15T04:02:29.032Z,7.84
2023-04-15T04:04:01.010Z,7.80
2023-04-15T04:05:32.611Z,7.79
2023-04-15T04:07:04.300Z,7.81
2023-04-15T04:08:36.031Z,7.82
2023-04-15T04:10:08.311Z,7.86
2023-04-15T04:11:40.450Z,7.92
2023-04-15T04:13:14.834Z,7.95
2023-04-15T04:14:47.356Z,8.02
2023-04-15T04:16:20.346Z,8.12
2023-04-15T04:17:52.610Z,8.17
2023-04-15T04:19:24.395Z,8.25
2023-04-15T04:20:56.112Z,8.30
2023-04-15T04:22:28.213Z,8.34
2023-04-15T04:24:00.155Z,8.35
2023-04-15T04:25:32.492Z,8.34
2023-04-15T04:27:04.165Z,8.36
2023-04-15T04:28:36.723Z,8.37
2023-04-15T04:30:11.760Z,8.36
2023-04-15T04:31:43.809Z,8.41
2023-04-15T04:33:18.901Z,8.47
2023-04-15T04:34:50.851Z,8.58
2023-04-15T04:36:22.670Z,8.67
2023-04-15T04:37:54.435Z,8.79
2023-04-15T04:39:26.501Z,8.85
2023-04-15T04:40:58.610Z,8.94
2023-04-15T04:42:30.480Z,9.01
2023-04-15T04:44:02.675Z,9.10
2023-04-15T04:45:34.543Z,9.18
2023-04-15T04:47:07.789Z,9.24
2023-04-15T04:48:39.904Z,9.27
2023-04-15T04:50:15.405Z,9.32
2023-04-15T04:51:48.709Z,9.38
2023-04-15T04:53:20.612Z,9.42
2023-04-15T04:54:52.273Z,9.54
2023-04-15T04:56:23.878Z,9.65
2023-04-15T04:57:56.115Z,9.76
2023-04-15T04:59:28.308Z,9.92
2023-04-15T05:01:02.883Z,10.06
2023-04-15T05:02:42.036Z,10.18
2023-04-15T05:04:13.987Z,10.31
2023-04-15T05:05:46.147Z,10.45
2023-04-15T05:07:22.068Z,10.55
2023-04-15T05:09:17.727Z,10.58
2023-04-15T05:10:52.941Z,10.68
2023-04-15T05:12:32.073Z,10.76
2023-04-15T05:14:06.525Z,10.82
2023-04-15T05:15:44.343Z,10.93
2023-04-15T05:17:25.168Z,11.10
2023-04-15T05:19:03.232Z,11.20
2023-04-15T05:20:35.340Z,11.23
2023-04-15T05:22:22.737Z,11.26
2023-04-15T05:24:08.998Z,11.41
2023-04-15T05:25:44.434Z,11.55
2023-04-15T05:27:16.304Z,11.67
2023-04-15T05:28:54.974Z,11.71
2023-04-15T05:30:27.981Z,11.86
2023-04-15T05:32:07.186Z,12.01
2023-04-15T05:33:40.775Z,12.09
2023-04-15T05:35:39.094Z,12.20
2023-04-15T05:37:15.116Z,12.45
2023-04-15T05:38:49.451Z,12.64
2023-04-15T05:40:33.363Z,12.79
2023-04-15T05:42:09.126Z,12.91
2023-04-15T05:43:46.212Z,12.96
2023-04-15T05:45:31.317Z,13.02
2023-04-15T05:47:04.069Z,13.13
2023-04-15T05:48:49.487Z,13.24
2023-04-15T05:50:44.693Z,13.29
2023-04-15T05:52:19.980Z,13.33
2023-04-15T05:53:51.838Z,13.49
2023-04-15T05:55:31.248Z,13.62
2023-04-15T05:57:07.253Z,13.74
2023-04-15T06:00:42.099Z,13.86
2023-04-15T06:02:35.510Z,13.88
2023-04-15T06:04:18.103Z,13.91
2023-04-15T06:05:54.862Z,13.88
2023-04-15T06:07:31.606Z,13.94
2023-04-15T06:10:57.927Z,14.13
2023-04-15T06:12:48.563Z,14.09
2023-04-15T06:14:25.936Z,14.07
2023-04-15T06:16:00.469Z,14.04
2023-04-15T06:17:34.024Z,14.12
2023-04-15T06:19:13.288Z,14.30
2023-04-15T06:20:45.757Z,14.39
2023-04-15T06:22:24.365Z,14.49
2023-04-15T06:24:08.332Z,14.56
2023-04-15T06:25:45.075Z,14.69
2023-04-15T06:27:17.086Z,14.84
2023-04-15T06:29:03.303Z,14.97
2023-04-15T06:30:46.508Z,14.92
2023-04-15T06:32:32.785Z,14.86
2023-04-15T06:34:20.406Z,14.83
2023-04-15T06:36:07.186Z,14.93
2023-04-15T06:37:59.403Z,15.12
2023-04-15T06:39:41.954Z,15.24
2023-04-15T06:43:23.044Z,15.29
2023-04-15T06:45:59.973Z,15.45
2023-04-15T06:47:40.534Z,15.50
2023-04-15T06:51:26.664Z,15.64
2023-04-15T06:53:19.975Z,15.81
2023-04-15T06:58:00.787Z,16.13
2023-04-15T06:59:51.342Z,16.20
2023-04-15T07:04:34.827Z,16.59
2023-04-15T07:06:35.760Z,16.63
2023-04-15T07:08:10.804Z,16.63
2023-04-15T07:09:50.555Z,16.68
2023-04-15T07:11:22.586Z,16.78
2023-04-15T07:12:58.218Z,16.73
2023-04-15T07:14:30.490Z,16.79
2023-04-15T07:16:02.768Z,16.79
2023-04-15T07:17:38.378Z,16.65
2023-04-15T07:19:11.902Z,16.49
2023-04-15T07:20:44.155Z,16.25
2023-04-15T07:22:18.075Z,16.06
2023-04-15T07:23:52.195Z,15.94
2023-04-15T07:25:26.791Z,15.83
2023-04-15T07:27:01.496Z,15.87
2023-04-15T07:28:37.686Z,15.99
2023-04-15T07:30:09.699Z,15.98
2023-04-15T07:31:42.477Z,15.90
2023-04-15T07:33:14.133Z,15.91
2023-04-15T07:34:50.756Z,15.93
2023-04-15T07:36:23.036Z,15.88
2023-04-15T07:37:55.264Z,15.75
2023-04-15T07:39:27.634Z,15.72
2023-04-15T07:40:59.705Z,15.77
2023-04-15T07:42:34.540Z,15.66
2023-04-15T07:44:06.298Z,15.52
2023-04-15T07:45:39.010Z,15.34
2023-04-15T07:47:13.656Z,15.22
2023-04-15T07:48:46.734Z,15.08
2023-04-15T07:50:20.018Z,15.01
2023-04-15T07:51:51.896Z,15.07
2023-04-15T07:53:23.820Z,15.07
2023-04-15T07:54:55.801Z,15.03
2023-04-15T07:56:28.307Z,15.05
2023-04-15T07:58:02.867Z,15.06
2023-04-15T07:59:34.588Z,15.07
2023-04-15T08:01:07.175Z,15.18
2023-04-15T08:02:41.998Z,15.23
2023-04-15T08:04:13.775Z,15.33
2023-04-15T08:05:45.764Z,15.48
2023-04-15T08:07:20.434Z,15.63
2023-04-15T08:08:54.685Z,15.78
2023-04-15T08:10:29.489Z,16.02
2023-04-15T08:12:01.242Z,15.97
2023-04-15T08:13:35.784Z,15.97
2023-04-15T08:15:08.477Z,16.11
2023-04-15T08:16:40.268Z,16.05
2023-04-15T08:18:12.318Z,16.04
2023-04-15T08:19:44.124Z,15.94
2023-04-15T08:21:19.810Z,15.91
2023-04-15T08:22:52.860Z,15.85
2023-04-15T08:24:26.947Z,16.01
2023-04-15T08:26:01.028Z,16.06
2023-04-15T08:27:36.027Z,16.03
2023-04-15T08:29:07.915Z,16.05
2023-04-15T08:30:47.257Z,16.10
2023-04-15T08:32:19.855Z,16.16
2023-04-15T08:33:55.945Z,16.24
2023-04-15T08:35:32.106Z,16.31
2023-04-15T08:37:12.743Z,16.34
2023-04-15T08:38:47.222Z,16.40
2023-04-15T08:40:19.128Z,16.46
2023-04-15T08:41:51.075Z,16.47
2023-04-15T08:43:27.050Z,16.50
2023-04-15T08:45:01.495Z,16.61
2023-04-15T08:46:36.257Z,16.78
2023-04-15T08:48:08.061Z,16.90
2023-04-15T08:49:43.297Z,17.00
2023-04-15T08:51:16.633Z,16.91
2023-04-15T08:52:48.397Z,16.95
2023-04-15T08:54:29.039Z,17.08
2023-04-15T08:56:03.709Z,17.02
2023-04-15T08:57:36.972Z,16.90
2023-04-15T08:59:11.486Z,16.96
2023-04-15T09:00:46.079Z,17.12
2023-04-15T09:02:18.045Z,17.14
2023-04-15T09:03:53.484Z,17.09
2023-04-15T09:05:26.759Z,17.01
2023-04-15T09:06:58.630Z,17.02
2023-04-15T09:08:30.626Z,17.07
2023-04-15T09:10:16.758Z,17.01
2023-04-15T09:11:50.217Z,16.88
2023-04-15T09:13:22.479Z,16.76
2023-04-15T09:14:54.357Z,16.78
2023-04-15T09:16:26.499Z,16.80
2023-04-15T09:18:01.586Z,16.78
2023-04-15T09:19:39.515Z,16.85
2023-04-15T09:21:16.149Z,16.86
2023-04-15T09:22:50.878Z,16.83
2023-04-15T09:24:33.243Z,16.83
2023-04-15T09:26:08.100Z,16.78
2023-04-15T09:27:46.783Z,16.93
2023-04-15T09:29:22.018Z,16.98
2023-04-15T09:31:00.250Z,17.00
2023-04-15T09:32:34.716Z,16.89
2023-04-15T09:34:15.829Z,16.87
2023-04-15T09:36:26.334Z,16.93
2023-04-15T09:38:07.954Z,16.99
2023-04-15T09:39:48.905Z,16.93
2023-04-15T09:41:22.764Z,16.81
2023-04-15T09:42:57.617Z,16.74
2023-04-15T09:44:41.071Z,16.74
2023-04-15T09:46:13.185Z,16.87
2023-04-15T09:47:50.771Z,17.03
2023-04-15T09:49:24.929Z,17.12
2023-04-15T09:51:00.885Z,17.18
2023-04-15T09:52:39.118Z,17.22
2023-04-15T09:54:17.937Z,17.20
2023-04-15T09:56:00.193Z,16.99
2023-04-15T09:57:39.732Z,16.92
2023-04-15T09:59:16.260Z,16.96
2023-04-15T10:00:50.336Z,17.05
2023-04-15T10:02:26.080Z,17.20
2023-04-15T10:04:01.901Z,17.24
2023-04-15T10:05:37.239Z,17.31
2023-04-15T10:07:12.218Z,17.38
2023-04-15T10:08:44.644Z,17.29
2023-04-15T10:10:17.190Z,17.27
2023-04-15T10:11:52.085Z,17.29
2023-04-15T10:14:08.645Z,17.29
2023-04-15T10:15:58.950Z,17.31
2023-04-15T10:17:43.613Z,17.36
2023-04-15T10:19:51.991Z,17.52
2023-04-15T10:21:35.898Z,17.69
2023-04-15T10:25:06.291Z,17.95
2023-04-15T10:26:49.638Z,18.07
2023-04-15T10:28:23.151Z,18.09
2023-04-15T10:29:59.065Z,17.90
2023-04-15T10:31:34.640Z,17.71
2023-04-15T10:33:10.763Z,17.64
2023-04-15T10:34:54.313Z,17.68
2023-04-15T10:36:29.112Z,17.69
2023-04-15T10:38:00.866Z,17.76
2023-04-15T10:39:44.371Z,17.83
2023-04-15T10:41:25.047Z,17.82
2023-04-15T10:42:57.360Z,17.93
2023-04-15T10:44:32.282Z,17.91
2023-04-15T10:46:06.380Z,17.91
2023-04-15T10:47:39.283Z,17.86
2023-04-15T10:49:14.119Z,17.84
2023-04-15T10:51:00.869Z,17.94
2023-04-15T10:52:33.490Z,18.18
2023-04-15T10:54:05.811Z,18.43
2023-04-15T10:55:37.861Z,18.48
2023-04-15T10:57:15.452Z,18.45
2023-04-15T10:58:47.645Z,18.34
2023-04-15T11:00:27.069Z,18.34
2023-04-15T11:02:05.380Z,18.35
2023-04-15T11:03:40.974Z,18.35
2023-04-15T11:05:17.912Z,18.29
2023-04-15T11:06:51.659Z,18.31
2023-04-15T11:08:46.224Z,18.44
2023-04-15T11:10:18.135Z,18.65
2023-04-15T11:12:06.689Z,18.77
2023-04-15T11:13:54.576Z,18.89
2023-04-15T11:15:34.356Z,18.90
2023-04-15T11:17:06.128Z,18.92
2023-04-15T11:18:40.368Z,18.90
2023-04-15T11:20:15.270Z,18.77
2023-04-15T11:21:46.987Z,18.68
2023-04-15T11:23:19.204Z,18.67
2023-04-15T11:24:51.299Z,18.54
2023-04-15T11:26:25.984Z,18.47
2023-04-15T11:28:00.819Z,18.44
2023-04-15T11:29:35.616Z,18.45
2023-04-15T11:31:08.870Z,18.50
2023-04-15T11:32:42.624Z,18.49
2023-04-15T11:34:14.654Z,18.50
2023-04-15T11:36:27.364Z,18.47
2023-04-15T11:38:12.668Z,18.32
2023-04-15T11:39:51.021Z,18.08
2023-04-15T11:41:28.541Z,17.99
2023-04-15T11:43:17.149Z,17.88
2023-04-15T11:45:06.973Z,17.84
2023-04-15T11:47:08.614Z,17.91
2023-04-15T11:48:47.130Z,17.90
2023-04-15T11:50:48.862Z,17.94
2023-04-15T11:52:38.760Z,18.05
2023-04-15T11:54:26.679Z,18.08
2023-04-15T11:56:21.166Z,17.96
2023-04-15T11:58:16.377Z,17.94
2023-04-15T11:59:51.687Z,18.07
2023-04-15T12:04:11.914Z,18.21
2023-04-15T12:06:35.776Z,18.30
2023-04-15T12:08:07.699Z,18.28
2023-04-15T12:09:42.740Z,18.27
2023-04-15T12:11:14.850Z,18.34
2023-04-15T12:12:49.665Z,18.41
2023-04-15T12:16:28.597Z,18.46
2023-04-15T12:18:00.334Z,18.48
2023-04-15T12:19:42.901Z,18.63
2023-04-15T12:21:20.107Z,18.71
2023-04-15T12:22:53.423Z,18.56
2023-04-15T12:24:50.585Z,18.33
2023-04-15T12:26:56.499Z,18.26
2023-04-15T12:28:34.661Z,18.21
2023-04-15T12:30:15.577Z,18.18
2023-04-15T12:31:56.008Z,18.28
2023-04-15T12:33:42.344Z,18.34
2023-04-15T12:35:47.824Z,18.51
2023-04-15T12:39:29.265Z,18.67
2023-04-15T12:42:50.676Z,19.01
2023-04-15T12:44:32.022Z,19.19
2023-04-15T12:46:43.906Z,19.29
2023-04-15T12:48:18.999Z,19.41
2023-04-15T12:49:53.897Z,19.45
2023-04-15T12:51:32.140Z,19.34
2023-04-15T12:53:05.329Z,19.23
2023-04-15T12:54:37.652Z,19.20
2023-04-15T12:56:12.224Z,19.07
2023-04-15T12:58:07.001Z,19.02
2023-04-15T13:00:03.850Z,18.92
2023-04-15T13:01:39.073Z,18.92
2023-04-15T13:03:17.019Z,18.97
2023-04-15T13:04:49.574Z,19.08
2023-04-15T13:06:40.384Z,19.14
2023-04-15T13:08:12.513Z,19.16
2023-04-15T13:09:57.906Z,19.25
2023-04-15T13:11:31.333Z,19.33
2023-04-15T13:13:10.952Z,19.35
2023-04-15T13:16:34.614Z,19.42
2023-04-15T13:18:07.633Z,19.52
2023-04-15T13:19:44.692Z,19.45
2023-04-15T13:21:16.829Z,19.39
2023-04-15T13:22:53.177Z,19.50
2023-04-15T13:24:27.329Z,19.37
2023-04-15T13:25:58.978Z,19.25
2023-04-15T13:27:33.909Z,19.16
2023-04-15T13:29:07.966Z,19.10
2023-04-15T13:30:39.754Z,19.11
2023-04-15T13:32:11.837Z,19.18
2023-04-15T13:33:43.717Z,19.28
2023-04-15T13:35:18.322Z,19.19
2023-04-15T13:38:35.720Z,19.04
2023-04-15T13:40:07.983Z,19.02
2023-04-15T13:41:40.255Z,19.04
2023-04-15T13:43:12.655Z,19.07
2023-04-15T13:44:55.938Z,19.07
2023-04-15T13:46:33.496Z,19.13
2023-04-15T13:48:05.312Z,19.02
2023-04-15T13:49:38.373Z,19.04
2023-04-15T13:51:10.359Z,19.12
2023-04-15T13:52:41.949Z,19.12
2023-04-15T13:54:17.162Z,19.12
2023-04-15T13:55:59.123Z,19.13
2023-04-15T13:57:31.418Z,19.15
2023-04-15T13:59:04.275Z,19.13
2023-04-15T14:02:21.990Z,18.96
2023-04-15T14:05:45.707Z,19.00
2023-04-15T14:07:18.088Z,18.98
2023-04-15T14:08:58.471Z,18.82
2023-04-15T14:10:42.376Z,18.75
2023-04-15T14:12:19.347Z,18.74
2023-04-15T14:13:51.158Z,18.74
2023-04-15T14:15:28.299Z,18.78
2023-04-15T14:17:00.498Z,18.74
2023-04-15T14:18:38.728Z,18.72
2023-04-15T14:22:19.312Z,18.67
2023-04-15T14:23:59.032Z,18.64
2023-04-15T14:25:34.083Z,18.68
2023-04-15T14:27:12.479Z,18.67
2023-04-15T14:28:45.496Z,18.66
2023-04-15T14:30:22.412Z,18.68
2023-04-15T14:32:10.971Z,18.76
2023-04-15T14:33:45.309Z,18.78
2023-04-15T14:35:17.245Z,18.71
2023-04-15T14:37:16.871Z,18.59
2023-04-15T14:41:18.662Z,18.39
2023-04-15T14:42:50.794Z,18.31
2023-04-15T14:44:47.576Z,18.30
2023-04-15T14:46:19.675Z,18.26
2023-04-15T14:47:55.656Z,18.27
2023-04-15T14:49:34.812Z,18.25
2023-04-15T14:52:20.586Z,18.29
2023-04-15T14:53:55.228Z,18.14
2023-04-15T14:55:51.874Z,18.13
2023-04-15T14:57:44.714Z,18.21
2023-04-15T14:59:45.150Z,18.33
2023-04-15T15:01:15.531Z,18.29
2023-04-15T15:02:52.751Z,18.24
2023-04-15T15:05:09.081Z,18.13
2023-04-15T15:06:41.158Z,18.02
2023-04-15T15:08:20.878Z,17.95
2023-04-15T15:09:52.841Z,18.01
2023-04-15T15:11:33.653Z,18.11
2023-04-15T15:13:16.440Z,18.16
2023-04-15T15:17:09.333Z,18.27
2023-04-15T15:18:59.742Z,18.33
2023-04-15T15:20:34.569Z,18.40
2023-04-15T15:22:06.524Z,18.43
2023-04-15T15:23:42.921Z,18.46
2023-04-15T15:25:14.804Z,18.52
2023-04-15T15:26:51.833Z,18.57
2023-04-15T15:28:23.989Z,18.57
2023-04-15T15:30:02.102Z,18.48
2023-04-15T15:31:43.271Z,18.42
2023-04-15T15:33:19.608Z,18.36
2023-04-15T15:34:55.085Z,18.37
2023-04-15T15:36:37.171Z,18.39
2023-04-15T15:38:09.043Z,18.39
2023-04-15T15:39:43.549Z,18.42
2023-04-15T15:41:15.899Z,18.41
2023-04-15T15:42:53.372Z,18.44
2023-04-15T15:44:32.540Z,18.51
2023-04-15T15:46:08.422Z,18.62
2023-04-15T15:47:42.467Z,18.66
2023-04-15T15:49:14.446Z,18.68
2023-04-15T15:50:50.123Z,18.73
2023-04-15T15:52:21.849Z,18.75
2023-04-15T15:53:54.001Z,18.78
2023-04-15T15:55:31.917Z,18.75
2023-04-15T15:57:19.056Z,18.70
2023-04-15T15:58:51.863Z,18.59
2023-04-15T16:01:10.213Z,18.56
2023-04-15T16:04:37.082Z,18.66
2023-04-15T16:06:31.728Z,18.62
2023-04-15T16:08:11.600Z,18.62
2023-04-15T16:09:55.306Z,18.68
2023-04-15T16:12:07.506Z,18.76
2023-04-15T16:13:48.267Z,18.73
2023-04-15T16:15:20.567Z,18.56
2023-04-15T16:16:57.619Z,18.42
2023-04-15T16:18:35.252Z,18.39
2023-04-15T16:20:19.285Z,18.36
2023-04-15T16:22:41.603Z,18.36
2023-04-15T16:24:14.097Z,18.33
2023-04-15T16:27:32.836Z,18.35
2023-04-15T16:29:08.726Z,18.32
2023-04-15T16:30:41.574Z,18.31
2023-04-15T16:32:19.337Z,18.27
2023-04-15T16:35:50.451Z,18.23
2023-04-15T16:47:14.352Z,18.19
2023-04-15T16:49:12.527Z,18.18
2023-04-15T16:50:48.689Z,18.17
2023-04-15T16:52:21.637Z,18.16
2023-04-15T16:53:54.683Z,18.14
2023-04-15T16:55:27.686Z,18.10
2023-04-15T16:57:03.596Z,18.07
2023-04-15T16:58:45.057Z,18.04
2023-04-15T17:00:27.813Z,18.02
2023-04-15T17:02:05.725Z,17.97
2023-04-15T17:03:39.208Z,17.89
2023-04-15T17:05:24.195Z,17.85
2023-04-15T17:07:14.021Z,17.78
2023-04-15T17:13:03.504Z,17.49
2023-04-15T17:14:40.906Z,17.47
2023-04-15T17:16:16.102Z,17.44
2023-04-15T17:17:48.132Z,17.38
2023-04-15T17:19:31.841Z,17.27
2023-04-15T17:21:09.114Z,17.11
2023-04-15T17:32:12.208Z,16.06
2023-04-15T17:33:57.482Z,15.95
2023-04-15T17:35:38.133Z,15.83
2023-04-15T17:37:10.827Z,15.77
2023-04-15T17:38:43.067Z,15.70
2023-04-15T17:40:16.338Z,15.56
2023-04-15T17:41:51.599Z,15.45
2023-04-15T17:43:23.883Z,15.36
2023-04-15T17:44:59.872Z,15.31
2023-04-15T17:46:32.176Z,15.29
2023-04-15T17:48:05.491Z,15.24
2023-04-15T17:49:38.676Z,15.23
2023-04-15T17:51:10.803Z,15.14
2023-04-15T17:52:42.760Z,15.10
2023-04-15T17:54:14.689Z,15.01
2023-04-15T17:55:46.952Z,14.90
2023-04-15T17:57:18.874Z,14.81
2023-04-15T17:58:54.687Z,14.75
2023-04-15T18:00:33.065Z,14.74
2023-04-15T18:02:06.520Z,14.73
2023-04-15T18:03:38.581Z,14.72
2023-04-15T18:05:10.769Z,14.72
2023-04-15T18:06:42.846Z,14.69
2023-04-15T18:08:16.093Z,14.62
2023-04-15T18:09:47.841Z,14.59
2023-04-15T18:11:20.169Z,14.52
2023-04-15T18:12:51.925Z,14.51
2023-04-15T18:14:34.156Z,14.46
2023-04-15T18:16:07.439Z,14.47
2023-04-15T18:17:39.413Z,14.48
2023-04-15T18:19:11.340Z,14.45
2023-04-15T18:20:43.492Z,14.41
2023-04-15T18:22:15.289Z,14.37
2023-04-15T18:23:47.191Z,14.38
2023-04-15T18:25:19.438Z,14.37
2023-04-15T18:26:51.314Z,14.33
2023-04-15T18:28:23.252Z,14.32
2023-04-15T18:29:55.073Z,14.32
2023-04-15T18:31:28.039Z,14.31
2023-04-15T18:33:00.277Z,14.35
2023-04-15T18:34:31.962Z,14.41
2023-04-15T18:36:04.267Z,14.41
2023-04-15T18:37:37.956Z,14.43
2023-04-15T18:39:10.143Z,14.41
2023-04-15T18:40:42.306Z,14.40
2023-04-15T18:42:19.607Z,14.32
2023-04-15T18:43:51.998Z,14.28
2023-04-15T18:45:24.437Z,14.20
2023-04-15T18:46:57.120Z,14.13
2023-04-15T18:48:29.489Z,14.08
2023-04-15T18:50:01.609Z,13.98
2023-04-15T18:51:34.694Z,13.89
2023-04-15T18:53:07.225Z,13.79
2023-04-15T18:54:39.437Z,13.74
2023-04-15T18:56:11.393Z,13.69
2023-04-15T18:57:54.226Z,13.70
2023-04-15T18:59:30.551Z,13.71
2023-04-15T19:01:04.988Z,13.73
2023-04-15T19:02:36.907Z,13.75
2023-04-15T19:04:10.620Z,13.72
2023-04-15T19:05:42.433Z,13.71
2023-04-15T19:07:16.518Z,13.70
2023-04-15T19:08:50.286Z,13.67
2023-04-15T19:10:24.653Z,13.66
2023-04-15T19:11:59.584Z,13.64
2023-04-15T19:13:33.116Z,13.61
2023-04-15T19:15:08.342Z,13.60
2023-04-15T19:16:40.568Z,13.59
2023-04-15T19:18:12.730Z,13.63
2023-04-15T19:19:44.680Z,13.61
2023-04-15T19:21:16.900Z,13.59
2023-04-15T19:22:49.290Z,13.61
2023-04-15T19:24:23.467Z,13.59
2023-04-15T19:25:55.735Z,13.61
2023-04-15T19:27:28.108Z,13.60
2023-04-15T19:28:59.770Z,13.55
2023-04-15T19:30:33.252Z,13.55
2023-04-15T19:32:05.775Z,13.54
2023-04-15T19:33:37.941Z,13.51
2023-04-15T19:35:11.545Z,13.50
2023-04-15T19:36:44.002Z,13.49
2023-04-15T19:38:16.289Z,13.52
2023-04-15T19:39:48.112Z,13.52
2023-04-15T19:41:19.861Z,13.53
2023-04-15T19:42:51.674Z,13.54
2023-04-15T19:44:25.612Z,13.58
2023-04-15T19:45:57.271Z,13.59
2023-04-15T19:47:29.055Z,13.56
2023-04-15T19:49:01.693Z,13.53
2023-04-15T19:50:35.812Z,13.52
2023-04-15T19:52:34.148Z,13.47
2023-04-15T19:54:07.229Z,13.50
2023-04-15T19:55:39.699Z,13.51
2023-04-15T19:57:21.182Z,13.51
2023-04-15T19:58:53.387Z,13.52
2023-04-15T20:00:33.668Z,13.52
2023-04-15T20:02:09.660Z,13.54
2023-04-15T20:03:52.521Z,13.57
2023-04-15T20:05:25.296Z,13.52
2023-04-15T20:07:00.012Z,13.48
2023-04-15T20:08:32.625Z,13.44
2023-04-15T20:10:12.480Z,13.45
2023-04-15T20:12:47.510Z,13.45
2023-04-15T20:13:36.880Z,13.46
2023-04-15T20:15:39.637Z,13.44
2023-04-15T20:17:14.642Z,13.43
2023-04-15T20:18:46.953Z,13.40
2023-04-15T20:20:19.402Z,13.39
2023-04-15T20:21:57.265Z,13.34
2023-04-15T20:23:41.238Z,13.35
2023-04-15T20:25:15.561Z,13.33
2023-04-15T20:26:48.818Z,13.36
2023-04-15T20:28:28.394Z,13.36
2023-04-15T20:30:04.759Z,13.37
2023-04-15T20:31:37.720Z,13.40
2023-04-15T20:33:09.798Z,13.42
2023-04-15T20:34:42.107Z,13.44
2023-04-15T20:36:18.241Z,13.44
2023-04-15T20:37:49.890Z,13.42
2023-04-15T20:39:21.712Z,13.40
2023-04-15T20:40:53.587Z,13.37
2023-04-15T20:42:25.242Z,13.33
2023-04-15T20:43:57.560Z,13.30
2023-04-15T20:45:29.461Z,13.26
2023-04-15T20:47:01.686Z,13.24
2023-04-15T20:48:33.869Z,13.22
2023-04-15T20:50:07.585Z,13.22
2023-04-15T20:51:39.767Z,13.20
2023-04-15T20:53:11.977Z,13.15
2023-04-15T20:54:44.058Z,13.12
2023-04-15T20:56:17.906Z,13.06
2023-04-15T20:57:49.831Z,13.01
2023-04-15T20:59:21.762Z,13.00
2023-04-15T21:00:55.356Z,13.00
2023-04-15T21:02:30.510Z,12.99
2023-04-15T21:04:03.544Z,12.98
2023-04-15T21:05:35.325Z,13.00
2023-04-15T21:07:08.186Z,13.01
2023-04-15T21:08:40.176Z,13.03
2023-04-15T21:10:13.114Z,13.06
2023-04-15T21:13:50.326Z,13.03
2023-04-15T21:17:58.819Z,12.85
2023-04-15T21:19:30.605Z,12.79
2023-04-15T21:21:02.715Z,12.75
2023-04-15T21:22:34.502Z,12.72
2023-04-15T21:24:08.088Z,12.75
2023-04-15T21:25:39.906Z,12.78
2023-04-15T21:27:14.611Z,12.81
2023-04-15T21:28:46.335Z,12.82
2023-04-15T21:30:18.441Z,12.86
2023-04-15T21:31:50.710Z,12.92
2023-04-15T21:33:22.970Z,12.95
2023-04-15T21:34:55.020Z,12.99
2023-04-15T21:36:27.171Z,13.00
2023-04-15T21:37:59.118Z,13.01
2023-04-15T21:39:31.251Z,12.98
2023-04-15T21:41:07.068Z,12.85
2023-04-15T21:42:39.355Z,12.80
2023-04-15T21:44:12.643Z,12.80
2023-04-15T21:46:21.239Z,12.83
2023-04-15T21:50:07.483Z,12.72
2023-04-15T21:54:00.212Z,12.76
2023-04-15T21:55:38.114Z,12.75
2023-04-15T21:57:10.092Z,12.68
2023-04-15T21:58:42.412Z,12.66
2023-04-15T22:07:16.897Z,12.64
2023-04-15T22:08:57.075Z,12.68
2023-04-15T22:10:42.799Z,12.73
2023-04-15T22:12:14.419Z,12.72
2023-04-15T22:13:48.580Z,12.71
2023-04-15T22:17:12.486Z,12.73
2023-04-15T22:18:45.481Z,12.71